This is the latest recevied weather packets stored in our database for station/object W4CPD. If no packets are shown the sender has not sent any weather packets the latest 10 day(s).
| Time | Temp. | Humidity | Pressure | Rain* | Wind** | Luminosity | Snow |
|---|---|---|---|---|---|---|---|
| 1778035214 | 20.56° C | 89% | 1015.6 hPa | 0 mm | - | - | - |
| 1778034913 | 20.56° C | 88% | 1015.5 hPa | 0 mm | - | - | - |
| 1778032214 | 21.11° C | 86% | 1015.2 hPa | 0 mm | - | - | - |
| 1778031313 | 21.67° C | 85% | 1015.2 hPa | 0 mm | - | - | - |
| 1778030713 | 21.67° C | 84% | 1015.2 hPa | 0 mm | - | - | - |
| 1778030132 | 21.67° C | 83% | 1015.3 hPa | 0 mm | - | - | - |
| 1778028613 | 22.22° C | 82% | 1015.1 hPa | 0 mm | - | - | - |
| 1778028336 | 22.22° C | 81% | 1015 hPa | 0 mm | - | - | - |
| 1778028012 | 22.78° C | 81% | 1014.9 hPa | 0 mm | - | - | - |
| 1778027714 | 22.78° C | 80% | 1014.9 hPa | 0 mm | - | - | - |
| 1778025314 | 23.89° C | 75% | 1015.1 hPa | 0 mm | - | - | - |
| 1778023514 | 25.56° C | 70% | 1015 hPa | 0 mm | - | - | - |
| 1778021414 | 26.11° C | 70% | 1014.9 hPa | 0 mm | - | - | - |
| 1778020230 | 26.11° C | 72% | 1014.7 hPa | 0 mm | - | - | - |
| 1778019918 | 26.11° C | 73% | 1014.6 hPa | 0 mm | - | - | - |
| 1778017815 | 26.67° C | 71% | 1014.6 hPa | 0 mm | - | - | - |
| 1778016630 | 25° C | 75% | 1014.8 hPa | 0 mm | - | - | - |
| 1778014214 | 26.11° C | 71% | 1014.9 hPa | 0 mm | - | - | - |
| 1778013930 | 26.11° C | 72% | 1014.9 hPa | 0 mm | - | - | - |
| 1778012714 | 26.67° C | 71% | 1015.3 hPa | 0 mm | - | - | - |
| 1778010915 | 26.67° C | 71% | 1015.5 hPa | 0 mm | - | - | - |
| 1778010334 | 26.11° C | 73% | 1015.5 hPa | 0 mm | - | - | - |
| 1778006729 | 26.67° C | 74% | 1015.9 hPa | 0 mm | - | - | - |
| 1778005512 | 25.56° C | 75% | 1016.2 hPa | 0 mm | - | - | - |
| 1778004617 | 25.56° C | 74% | 1016.3 hPa | 0 mm | - | - | - |
* Rain latest hour (hover to see other rain measurements)
** Current wind speed in m/s (hover to see current wind gust speed)